CHTM7: Spring River at Carthage, MO

                                SHEF ID:       CHTM7     Spring River at Carthage, MO
STATION TYPE:

PRECIP STAGE RIV-FLOW
in ft cfs
Ccp-Rev Ccp-Rev Ccp-Rev
(America/Chicago)
03/08 00:00 0.00 5.50 1699
03/08 01:00 0.00 5.49 1692
03/08 03:00 0.00 5.47 1678
03/08 04:00 0.00 5.42 1644
03/08 05:00 0.00 5.42 1644
03/08 06:00 0.00 5.36 1604
03/08 07:00 0.00 5.32 1577
03/08 08:00 0.00 5.21 1505
03/08 09:00 0.00 5.18 1484
03/08 10:00 0.00 5.14 1457
03/08 11:00 0.00 5.06 1402
03/08 12:00 0.00 5.01 1369
03/08 13:00 0.00 4.92 1308
03/08 14:00 0.00 4.88 1281
03/08 15:00 0.00 4.82 1240
03/08 16:00 0.00 4.78 1213
03/08 17:00 0.00 4.73 1179
03/08 18:00 0.00 4.69 1152
03/08 19:00 0.00 4.66 1131
03/08 20:00 0.00 4.63 1111
03/08 21:00 0.00 4.60 1091
03/08 22:00 0.00 4.57 1070
03/08 23:00 0.00 4.54 1050
Data processed at Mon 09Mar2026 04:52 GMT

NOTICE: If you are parsing this page

Please convert to using our Data API. Starting early 2026 we will be migrating to: https://water.usace.army.mil with modern pages rendered in JavaScript. When this migration completes you will no longer be able to scrape this page! CWMSDataAPI (CDA)

Timeseries IDs (TSIDs)

TSIDs used from left to right in the data table
CART.Precip-Inc.Total.1Hour.1Hour.Ccp-Rev
CART.Stage.Inst.1Hour.0.Ccp-Rev
CART.Flow.Inst.1Hour.0.Ccp-Rev

                            

All information presented herein is the property of the government of the United States of America and may be revised or deleted at any time without prior notice. Dissemination of this information without the expressed written consent of the Public Affairs Office, Tulsa District U.S. Army Corps of Engineers is strictly prohibited. These data are gathered electronically and, as presented, have NOT undergone any form of quality control. These data are NOT guaranteed to be valid or correct.